createdAt,value
2023-01-06T00:03:10.375Z,96907.00
2023-01-06T00:07:20.784Z,96903.00
2023-01-06T00:11:24.238Z,96910.00
2023-01-06T00:15:30.536Z,96901.00
2023-01-06T00:19:35.622Z,96894.00
2023-01-06T00:23:42.255Z,96884.00
2023-01-06T00:27:46.510Z,96875.00
2023-01-06T00:31:50.125Z,96879.00
2023-01-06T00:35:53.221Z,96875.00
2023-01-06T00:39:57.645Z,96871.00
2023-01-06T00:44:01.835Z,96861.00
2023-01-06T00:48:06.729Z,96863.00
2023-01-06T00:52:12.640Z,96867.00
2023-01-06T00:56:19.451Z,96870.00
2023-01-06T01:00:24.725Z,96871.00
2023-01-06T01:04:28.243Z,96874.00
2023-01-06T01:08:32.014Z,96870.00
2023-01-06T01:12:36.601Z,96875.00
2023-01-06T01:16:43.434Z,96874.00
2023-01-06T01:20:49.929Z,96871.00
2023-01-06T01:24:53.440Z,96872.00
2023-01-06T01:28:57.947Z,96871.00
2023-01-06T01:33:03.740Z,96871.00
2023-01-06T01:37:06.785Z,96872.00
2023-01-06T01:41:14.314Z,96864.00
2023-01-06T01:45:27.177Z,96864.00
2023-01-06T01:49:37.293Z,96870.00
2023-01-06T01:53:45.109Z,96855.00
2023-01-06T02:02:04.085Z,96851.00
2023-01-06T02:06:15.024Z,96845.00
2023-01-06T02:10:23.378Z,96846.00
2023-01-06T02:14:29.189Z,96833.00
2023-01-06T02:18:47.106Z,96837.00
2023-01-06T02:23:25.629Z,96832.00
2023-01-06T02:28:07.901Z,96835.00
2023-01-06T02:32:24.303Z,96817.00
2023-01-06T02:36:47.029Z,96819.00
2023-01-06T02:41:04.133Z,96816.00
2023-01-06T02:45:17.857Z,96826.00
2023-01-06T02:49:33.720Z,96821.00
2023-01-06T02:53:42.672Z,96828.00
2023-01-06T02:57:55.546Z,96820.00
2023-01-06T03:02:05.542Z,96817.00
2023-01-06T03:06:13.189Z,96819.00
2023-01-06T03:10:22.974Z,96820.00
2023-01-06T03:14:38.117Z,96817.00
2023-01-06T03:18:46.275Z,96807.00
2023-01-06T03:22:50.826Z,96812.00
2023-01-06T03:26:56.638Z,96801.00
2023-01-06T03:31:08.629Z,96800.00
2023-01-06T03:35:32.009Z,96802.00
2023-01-06T03:39:41.097Z,96802.00
2023-01-06T03:43:53.152Z,96798.00
2023-01-06T03:48:03.453Z,96794.00
2023-01-06T03:52:15.914Z,96788.00
2023-01-06T03:56:24.654Z,96787.00
2023-01-06T04:00:32.603Z,96793.00
2023-01-06T04:04:35.782Z,96783.00
2023-01-06T04:08:39.391Z,96780.00
2023-01-06T04:12:44.069Z,96772.00
2023-01-06T04:16:47.133Z,96778.00
2023-01-06T04:20:50.212Z,96768.00
2023-01-06T04:24:55.073Z,96778.00
2023-01-06T04:29:00.532Z,96762.00
2023-01-06T04:33:03.638Z,96763.00
2023-01-06T04:37:06.675Z,96763.00
2023-01-06T04:41:12.002Z,96758.00
2023-01-06T04:45:16.620Z,96757.00
2023-01-06T04:49:20.243Z,96744.00
2023-01-06T04:53:23.760Z,96749.00
2023-01-06T04:57:28.396Z,96747.00
2023-01-06T05:01:36.375Z,96745.00
2023-01-06T05:05:39.907Z,96744.00
2023-01-06T05:09:45.091Z,96743.00
2023-01-06T05:13:51.540Z,96750.00
2023-01-06T05:17:56.202Z,96744.00
2023-01-06T05:22:02.129Z,96749.00
2023-01-06T05:26:05.643Z,96754.00
2023-01-06T05:30:12.735Z,96752.00
2023-01-06T05:34:17.331Z,96758.00
2023-01-06T05:38:20.650Z,96758.00
2023-01-06T05:42:25.778Z,96757.00
2023-01-06T05:46:29.382Z,96759.00
2023-01-06T05:50:34.743Z,96758.00
2023-01-06T05:54:40.725Z,96755.00
2023-01-06T05:58:46.523Z,96771.00
2023-01-06T06:02:49.821Z,96773.00
2023-01-06T06:06:54.210Z,96773.00
2023-01-06T06:10:57.715Z,96775.00
2023-01-06T06:15:01.038Z,96769.00
2023-01-06T06:19:10.512Z,96768.00
2023-01-06T06:23:15.265Z,96760.00
2023-01-06T06:27:18.419Z,96751.00
2023-01-06T06:31:27.640Z,96748.00
2023-01-06T06:35:32.578Z,96746.00
2023-01-06T06:39:37.235Z,96747.00
2023-01-06T06:43:40.860Z,96743.00
2023-01-06T06:47:44.026Z,96730.00
2023-01-06T06:51:51.184Z,96731.00
2023-01-06T06:55:55.788Z,96724.00
2023-01-06T07:00:03.267Z,96731.00
2023-01-06T07:04:08.419Z,96750.00
2023-01-06T07:08:11.575Z,96743.00
2023-01-06T07:12:16.237Z,96749.00
2023-01-06T07:16:20.001Z,96749.00
2023-01-06T07:20:27.749Z,96748.00
2023-01-06T07:24:30.836Z,96743.00
2023-01-06T07:28:35.454Z,96746.00
2023-01-06T07:32:43.700Z,96750.00
2023-01-06T07:36:46.898Z,96741.00
2023-01-06T07:40:50.243Z,96743.00
2023-01-06T07:44:54.656Z,96752.00
2023-01-06T07:48:59.530Z,96755.00
2023-01-06T07:53:03.658Z,96766.00
2023-01-06T07:57:06.952Z,96775.00
2023-01-06T08:01:12.832Z,96788.00
2023-01-06T08:05:15.992Z,96783.00
2023-01-06T08:09:22.458Z,96786.00
2023-01-06T08:13:27.600Z,96795.00
2023-01-06T08:17:35.547Z,96788.00
2023-01-06T08:21:38.645Z,96795.00
2023-01-06T08:25:42.866Z,96799.00
2023-01-06T08:29:47.014Z,96791.00
2023-01-06T08:33:53.655Z,96786.00
2023-01-06T08:37:57.507Z,96787.00
2023-01-06T08:42:00.645Z,96784.00
2023-01-06T08:46:09.661Z,96784.00
2023-01-06T08:50:14.236Z,96777.00
2023-01-06T08:54:17.350Z,96782.00
2023-01-06T08:58:20.601Z,96770.00
2023-01-06T09:02:30.618Z,96781.00
2023-01-06T09:06:36.523Z,96775.00
2023-01-06T09:10:40.176Z,96777.00
2023-01-06T09:14:43.271Z,96776.00
2023-01-06T09:18:50.277Z,96780.00
2023-01-06T09:22:55.049Z,96776.00
2023-01-06T09:27:00.471Z,96777.00
2023-01-06T09:31:04.801Z,96780.00
2023-01-06T09:35:09.419Z,96781.00
2023-01-06T09:39:13.851Z,96782.00
2023-01-06T09:43:27.899Z,96786.00
2023-01-06T09:47:35.271Z,96785.00
2023-01-06T09:51:39.163Z,96788.00
2023-01-06T09:55:49.176Z,96781.00
2023-01-06T09:59:59.901Z,96776.00
2023-01-06T10:04:05.605Z,96762.00
2023-01-06T10:08:19.072Z,96770.00
2023-01-06T10:12:33.721Z,96773.00
2023-01-06T10:16:54.469Z,96760.00
2023-01-06T10:21:10.871Z,96759.00
2023-01-06T10:25:19.786Z,96751.00
2023-01-06T10:29:30.867Z,96748.00
2023-01-06T10:33:44.475Z,96746.00
2023-01-06T10:37:54.506Z,96748.00
2023-01-06T10:42:24.713Z,96739.00
2023-01-06T10:46:34.462Z,96731.00
2023-01-06T10:50:41.231Z,96736.00
2023-01-06T10:54:45.489Z,96730.00
2023-01-06T10:58:54.099Z,96735.00
2023-01-06T11:03:25.614Z,96732.00
2023-01-06T11:07:33.057Z,96728.00
2023-01-06T11:11:49.812Z,96720.00
2023-01-06T11:15:57.481Z,96715.00
2023-01-06T11:20:31.528Z,96696.00
2023-01-06T11:24:34.655Z,96694.00
2023-01-06T11:28:39.671Z,96694.00
2023-01-06T11:32:43.976Z,96702.00
2023-01-06T11:36:52.241Z,96689.00
2023-01-06T11:40:56.533Z,96699.00
2023-01-06T11:45:02.305Z,96690.00
2023-01-06T11:49:10.060Z,96699.00
2023-01-06T11:53:21.367Z,96687.00
2023-01-06T11:57:36.709Z,96696.00
2023-01-06T12:01:48.089Z,96685.00
2023-01-06T12:05:57.611Z,96690.00
2023-01-06T12:10:09.766Z,96693.00
2023-01-06T12:14:27.945Z,96699.00
2023-01-06T12:18:36.265Z,96702.00
2023-01-06T12:22:43.131Z,96703.00
2023-01-06T12:26:53.579Z,96707.00
2023-01-06T12:31:02.088Z,96708.00
2023-01-06T12:35:11.978Z,96701.00
2023-01-06T12:39:28.560Z,96705.00
2023-01-06T12:43:36.838Z,96708.00
2023-01-06T12:47:46.700Z,96725.00
2023-01-06T12:51:56.459Z,96715.00
2023-01-06T12:56:21.668Z,96711.00
2023-01-06T13:00:46.395Z,96709.00
2023-01-06T13:05:00.189Z,96726.00
2023-01-06T13:09:23.072Z,96732.00
2023-01-06T13:13:48.390Z,96736.00
2023-01-06T13:18:05.613Z,96723.00
2023-01-06T13:22:16.963Z,96721.00
2023-01-06T13:26:35.721Z,96716.00
2023-01-06T13:31:20.195Z,96710.00
2023-01-06T13:35:47.114Z,96700.00
2023-01-06T13:39:58.594Z,96685.00
2023-01-06T13:44:27.492Z,96693.00
2023-01-06T13:48:34.568Z,96693.00
2023-01-06T13:52:38.983Z,96692.00
2023-01-06T13:57:12.644Z,96692.00
2023-01-06T14:01:49.494Z,96691.00
2023-01-06T14:06:00.239Z,96697.00
2023-01-06T14:10:34.277Z,96702.00
2023-01-06T14:15:06.885Z,96697.00
2023-01-06T14:19:41.150Z,96706.00
2023-01-06T14:24:22.111Z,96714.00
2023-01-06T14:29:09.595Z,96723.00
2023-01-06T14:33:57.595Z,96734.00
2023-01-06T14:38:39.751Z,96739.00
2023-01-06T14:43:20.848Z,96748.00
2023-01-06T14:47:31.566Z,96749.00
2023-01-06T14:51:36.070Z,96741.00
2023-01-06T14:56:18.061Z,96745.00
2023-01-06T15:00:51.715Z,96746.00
2023-01-06T15:04:57.587Z,96756.00
2023-01-06T15:09:34.105Z,96751.00
2023-01-06T15:14:25.997Z,96749.00
2023-01-06T15:18:34.040Z,96758.00
2023-01-06T15:22:37.819Z,96761.00
2023-01-06T15:26:43.977Z,96763.00
2023-01-06T15:31:20.834Z,96762.00
2023-01-06T15:36:00.269Z,96772.00
2023-01-06T15:40:37.975Z,96775.00
2023-01-06T15:44:58.885Z,96772.00
2023-01-06T15:49:26.064Z,96773.00
2023-01-06T15:54:01.439Z,96774.00
2023-01-06T15:58:30.959Z,96783.00
2023-01-06T16:02:37.687Z,96787.00
2023-01-06T16:06:44.108Z,96794.00
2023-01-06T16:10:48.624Z,96807.00
2023-01-06T16:15:28.747Z,96804.00
2023-01-06T16:20:10.279Z,96801.00
2023-01-06T16:24:43.863Z,96799.00
2023-01-06T16:29:20.038Z,96796.00
2023-01-06T16:33:56.030Z,96804.00
2023-01-06T16:38:05.703Z,96795.00
2023-01-06T16:43:02.302Z,96801.00
2023-01-06T16:47:39.862Z,96807.00
2023-01-06T16:52:16.008Z,96804.00
2023-01-06T16:56:53.661Z,96799.00
2023-01-06T17:01:28.138Z,96802.00
2023-01-06T17:06:26.350Z,96809.00
2023-01-06T17:11:17.713Z,96818.00
2023-01-06T17:15:45.131Z,96813.00
2023-01-06T17:20:19.128Z,96818.00
2023-01-06T17:24:59.347Z,96811.00
2023-01-06T17:29:34.791Z,96817.00
2023-01-06T17:34:20.586Z,96819.00
2023-01-06T17:38:46.880Z,96823.00
2023-01-06T17:43:25.956Z,96818.00
2023-01-06T17:47:56.492Z,96823.00
2023-01-06T17:52:38.626Z,96825.00
2023-01-06T17:57:15.796Z,96829.00
2023-01-06T18:01:24.802Z,96834.00
2023-01-06T18:05:59.376Z,96835.00
2023-01-06T18:10:36.436Z,96836.00
2023-01-06T18:15:32.470Z,96827.00
2023-01-06T18:19:51.654Z,96838.00
2023-01-06T18:23:54.934Z,96837.00
2023-01-06T18:28:31.959Z,96839.00
2023-01-06T18:33:14.840Z,96834.00
2023-01-06T18:37:24.215Z,96833.00
2023-01-06T18:42:05.176Z,96827.00
2023-01-06T18:46:31.490Z,96840.00
2023-01-06T18:51:14.726Z,96836.00
2023-01-06T18:55:24.182Z,96831.00
2023-01-06T18:59:55.364Z,96843.00
2023-01-06T19:04:03.334Z,96835.00
2023-01-06T19:08:39.252Z,96832.00
2023-01-06T19:13:15.595Z,96840.00
2023-01-06T19:17:27.175Z,96833.00
2023-01-06T19:21:30.231Z,96839.00
2023-01-06T19:26:04.077Z,96839.00
2023-01-06T19:30:43.700Z,96838.00
2023-01-06T19:35:22.407Z,96841.00
2023-01-06T19:39:33.691Z,96837.00
2023-01-06T19:44:01.276Z,96834.00
2023-01-06T19:48:14.869Z,96828.00
2023-01-06T19:52:40.091Z,96842.00
2023-01-06T19:57:20.873Z,96843.00
2023-01-06T20:01:53.755Z,96837.00
2023-01-06T20:06:32.069Z,96845.00
2023-01-06T20:11:07.362Z,96843.00
2023-01-06T20:15:41.393Z,96843.00
2023-01-06T20:20:18.710Z,96831.00
2023-01-06T20:24:57.046Z,96842.00
2023-01-06T20:29:32.678Z,96850.00
2023-01-06T20:34:06.905Z,96844.00
2023-01-06T20:38:43.670Z,96848.00
2023-01-06T20:42:51.211Z,96849.00
2023-01-06T20:47:24.727Z,96854.00
2023-01-06T20:51:58.541Z,96859.00
2023-01-06T20:56:01.626Z,96856.00
2023-01-06T21:00:07.966Z,96855.00
2023-01-06T21:04:10.985Z,96844.00
2023-01-06T21:08:48.267Z,96850.00
2023-01-06T21:13:24.366Z,96851.00
2023-01-06T21:17:28.848Z,96840.00
2023-01-06T21:22:02.388Z,96835.00
2023-01-06T21:26:08.069Z,96827.00
2023-01-06T21:30:44.400Z,96827.00
2023-01-06T21:34:49.891Z,96831.00
2023-01-06T21:39:23.764Z,96836.00
2023-01-06T21:43:26.849Z,96831.00
2023-01-06T21:48:10.438Z,96833.00
2023-01-06T21:52:15.950Z,96834.00
2023-01-06T21:56:50.332Z,96834.00
2023-01-06T22:00:54.619Z,96843.00
2023-01-06T22:05:01.790Z,96842.00
2023-01-06T22:09:08.305Z,96841.00
2023-01-06T22:13:18.034Z,96836.00
2023-01-06T22:22:46.630Z,96829.00
2023-01-06T22:26:51.041Z,96822.00
2023-01-06T22:31:25.056Z,96833.00
2023-01-06T22:35:29.810Z,96829.00
2023-01-06T22:39:34.107Z,96843.00
2023-01-06T22:43:38.543Z,96837.00
2023-01-06T22:47:49.052Z,96839.00
2023-01-06T22:51:52.442Z,96838.00
2023-01-06T22:55:59.338Z,96835.00
2023-01-06T23:00:08.177Z,96835.00
2023-01-06T23:04:16.652Z,96826.00
2023-01-06T23:08:19.809Z,96830.00
2023-01-06T23:12:56.870Z,96826.00
2023-01-06T23:17:01.524Z,96825.00
2023-01-06T23:21:09.783Z,96822.00
2023-01-06T23:25:13.105Z,96835.00
2023-01-06T23:29:19.397Z,96828.00
2023-01-06T23:33:23.812Z,96835.00
2023-01-06T23:37:57.940Z,96822.00
2023-01-06T23:42:00.944Z,96816.00
2023-01-06T23:46:07.969Z,96806.00
2023-01-06T23:50:22.478Z,96803.00
2023-01-06T23:54:25.521Z,96804.00
2023-01-06T23:58:31.476Z,96795.00
